sensor_id;sensor_type;location;lat;lon;timestamp;P1;durP1;ratioP1;P2;durP2;ratioP2
9789;SDS011;4934;50.852;8.098;2023-02-17T00:00:23;34.53;;;17.40;;
9789;SDS011;4934;50.852;8.098;2023-02-17T00:02:48;36.35;;;17.70;;
9789;SDS011;4934;50.852;8.098;2023-02-17T00:05:14;37.22;;;17.08;;
9789;SDS011;4934;50.852;8.098;2023-02-17T00:07:39;34.55;;;17.35;;
9789;SDS011;4934;50.852;8.098;2023-02-17T00:10:05;31.58;;;16.85;;
9789;SDS011;4934;50.852;8.098;2023-02-17T00:12:32;40.28;;;17.65;;
9789;SDS011;4934;50.852;8.098;2023-02-17T00:14:57;38.83;;;18.13;;
9789;SDS011;4934;50.852;8.098;2023-02-17T00:17:23;37.63;;;16.63;;
9789;SDS011;4934;50.852;8.098;2023-02-17T00:19:48;34.00;;;17.27;;
9789;SDS011;4934;50.852;8.098;2023-02-17T00:22:14;36.40;;;18.48;;
9789;SDS011;4934;50.852;8.098;2023-02-17T00:24:39;29.60;;;15.98;;
9789;SDS011;4934;50.852;8.098;2023-02-17T00:27:05;40.90;;;16.50;;
9789;SDS011;4934;50.852;8.098;2023-02-17T00:29:31;33.67;;;16.65;;
9789;SDS011;4934;50.852;8.098;2023-02-17T00:31:57;36.13;;;16.45;;
9789;SDS011;4934;50.852;8.098;2023-02-17T00:34:23;43.40;;;17.45;;
9789;SDS011;4934;50.852;8.098;2023-02-17T00:36:49;35.25;;;16.42;;
9789;SDS011;4934;50.852;8.098;2023-02-17T00:39:15;38.80;;;16.45;;
9789;SDS011;4934;50.852;8.098;2023-02-17T00:41:41;34.95;;;17.15;;
9789;SDS011;4934;50.852;8.098;2023-02-17T00:44:11;40.80;;;16.70;;
9789;SDS011;4934;50.852;8.098;2023-02-17T00:46:44;36.30;;;18.02;;
9789;SDS011;4934;50.852;8.098;2023-02-17T00:49:14;36.33;;;18.25;;
9789;SDS011;4934;50.852;8.098;2023-02-17T00:51:48;34.97;;;16.38;;
9789;SDS011;4934;50.852;8.098;2023-02-17T00:54:14;32.08;;;16.25;;
9789;SDS011;4934;50.852;8.098;2023-02-17T00:56:40;37.90;;;17.45;;
9789;SDS011;4934;50.852;8.098;2023-02-17T00:59:06;34.63;;;16.90;;
9789;SDS011;4934;50.852;8.098;2023-02-17T01:01:32;32.72;;;16.95;;
9789;SDS011;4934;50.852;8.098;2023-02-17T01:03:58;33.95;;;16.52;;
9789;SDS011;4934;50.852;8.098;2023-02-17T01:06:25;32.05;;;16.00;;
9789;SDS011;4934;50.852;8.098;2023-02-17T01:08:53;32.05;;;16.45;;
9789;SDS011;4934;50.852;8.098;2023-02-17T01:11:20;33.20;;;16.13;;
9789;SDS011;4934;50.852;8.098;2023-02-17T01:13:48;34.00;;;15.82;;
9789;SDS011;4934;50.852;8.098;2023-02-17T01:16:17;34.03;;;15.27;;
9789;SDS011;4934;50.852;8.098;2023-02-17T01:18:51;30.10;;;14.38;;
9789;SDS011;4934;50.852;8.098;2023-02-17T01:21:18;35.50;;;17.13;;
9789;SDS011;4934;50.852;8.098;2023-02-17T01:23:47;33.38;;;15.63;;
9789;SDS011;4934;50.852;8.098;2023-02-17T01:26:14;34.45;;;15.15;;
9789;SDS011;4934;50.852;8.098;2023-02-17T01:28:42;32.50;;;14.70;;
9789;SDS011;4934;50.852;8.098;2023-02-17T01:31:08;31.38;;;14.85;;
9789;SDS011;4934;50.852;8.098;2023-02-17T01:33:35;31.30;;;15.45;;
9789;SDS011;4934;50.852;8.098;2023-02-17T01:36:04;31.00;;;14.77;;
9789;SDS011;4934;50.852;8.098;2023-02-17T01:38:32;31.10;;;15.50;;
9789;SDS011;4934;50.852;8.098;2023-02-17T01:40:59;31.00;;;14.75;;
9789;SDS011;4934;50.852;8.098;2023-02-17T01:43:24;28.80;;;14.93;;
9789;SDS011;4934;50.852;8.098;2023-02-17T01:45:57;31.85;;;15.68;;
9789;SDS011;4934;50.852;8.098;2023-02-17T01:51:42;30.58;;;15.00;;
9789;SDS011;4934;50.852;8.098;2023-02-17T01:53:56;27.90;;;14.10;;
9789;SDS011;4934;50.852;8.098;2023-02-17T01:56:30;32.15;;;15.60;;
9789;SDS011;4934;50.852;8.098;2023-02-17T01:59:00;29.98;;;14.63;;
9789;SDS011;4934;50.852;8.098;2023-02-17T02:01:29;29.00;;;13.50;;
9789;SDS011;4934;50.852;8.098;2023-02-17T02:03:55;30.13;;;14.18;;
9789;SDS011;4934;50.852;8.098;2023-02-17T02:06:24;26.95;;;13.95;;
9789;SDS011;4934;50.852;8.098;2023-02-17T02:08:53;30.33;;;14.00;;
9789;SDS011;4934;50.852;8.098;2023-02-17T02:11:30;27.65;;;12.30;;
9789;SDS011;4934;50.852;8.098;2023-02-17T02:13:56;28.30;;;13.38;;
9789;SDS011;4934;50.852;8.098;2023-02-17T02:16:28;31.05;;;13.38;;
9789;SDS011;4934;50.852;8.098;2023-02-17T02:27:08;34.42;;;14.73;;
9789;SDS011;4934;50.852;8.098;2023-02-17T02:29:57;25.90;;;12.60;;
9789;SDS011;4934;50.852;8.098;2023-02-17T02:32:48;21.08;;;11.27;;
9789;SDS011;4934;50.852;8.098;2023-02-17T02:35:21;27.85;;;13.55;;
9789;SDS011;4934;50.852;8.098;2023-02-17T02:37:52;23.45;;;12.80;;
9789;SDS011;4934;50.852;8.098;2023-02-17T02:40:29;27.50;;;12.27;;
9789;SDS011;4934;50.852;8.098;2023-02-17T02:43:00;30.55;;;11.77;;
9789;SDS011;4934;50.852;8.098;2023-02-17T02:45:27;22.83;;;11.88;;
9789;SDS011;4934;50.852;8.098;2023-02-17T02:47:53;20.85;;;11.13;;
9789;SDS011;4934;50.852;8.098;2023-02-17T02:53:15;26.33;;;11.38;;
9789;SDS011;4934;50.852;8.098;2023-02-17T02:55:53;22.98;;;11.80;;
9789;SDS011;4934;50.852;8.098;2023-02-17T02:58:36;18.73;;;10.48;;
9789;SDS011;4934;50.852;8.098;2023-02-17T03:01:29;23.17;;;11.43;;
9789;SDS011;4934;50.852;8.098;2023-02-17T03:04:14;20.67;;;10.13;;
9789;SDS011;4934;50.852;8.098;2023-02-17T03:07:13;25.67;;;12.07;;
9789;SDS011;4934;50.852;8.098;2023-02-17T03:09:47;24.35;;;11.05;;
9789;SDS011;4934;50.852;8.098;2023-02-17T03:12:17;21.55;;;10.25;;
9789;SDS011;4934;50.852;8.098;2023-02-17T03:14:44;22.10;;;9.77;;
9789;SDS011;4934;50.852;8.098;2023-02-17T03:17:14;22.42;;;10.70;;
9789;SDS011;4934;50.852;8.098;2023-02-17T03:19:39;24.23;;;10.73;;
9789;SDS011;4934;50.852;8.098;2023-02-17T03:22:11;22.70;;;10.68;;
9789;SDS011;4934;50.852;8.098;2023-02-17T03:24:46;22.08;;;11.45;;
9789;SDS011;4934;50.852;8.098;2023-02-17T03:27:12;21.52;;;9.93;;
9789;SDS011;4934;50.852;8.098;2023-02-17T03:29:38;23.60;;;10.43;;
9789;SDS011;4934;50.852;8.098;2023-02-17T03:32:04;20.92;;;10.77;;
9789;SDS011;4934;50.852;8.098;2023-02-17T03:34:30;20.20;;;9.23;;
9789;SDS011;4934;50.852;8.098;2023-02-17T03:36:56;22.67;;;9.90;;
9789;SDS011;4934;50.852;8.098;2023-02-17T03:39:21;19.65;;;9.95;;
9789;SDS011;4934;50.852;8.098;2023-02-17T03:41:47;20.58;;;9.20;;
9789;SDS011;4934;50.852;8.098;2023-02-17T03:44:15;18.10;;;9.40;;
9789;SDS011;4934;50.852;8.098;2023-02-17T03:46:42;23.98;;;9.57;;
9789;SDS011;4934;50.852;8.098;2023-02-17T03:49:08;18.27;;;9.45;;
9789;SDS011;4934;50.852;8.098;2023-02-17T03:51:33;20.38;;;9.18;;
9789;SDS011;4934;50.852;8.098;2023-02-17T03:53:59;19.70;;;10.10;;
9789;SDS011;4934;50.852;8.098;2023-02-17T03:56:24;21.40;;;9.77;;
9789;SDS011;4934;50.852;8.098;2023-02-17T03:58:50;19.23;;;8.95;;
9789;SDS011;4934;50.852;8.098;2023-02-17T04:01:16;19.00;;;8.60;;
9789;SDS011;4934;50.852;8.098;2023-02-17T04:03:42;17.23;;;8.48;;
9789;SDS011;4934;50.852;8.098;2023-02-17T04:06:08;18.55;;;9.50;;
9789;SDS011;4934;50.852;8.098;2023-02-17T04:08:35;21.02;;;9.60;;
9789;SDS011;4934;50.852;8.098;2023-02-17T04:11:01;17.85;;;8.55;;
9789;SDS011;4934;50.852;8.098;2023-02-17T04:13:28;19.10;;;10.18;;
9789;SDS011;4934;50.852;8.098;2023-02-17T04:15:54;19.60;;;9.73;;
9789;SDS011;4934;50.852;8.098;2023-02-17T04:18:20;15.98;;;9.25;;
9789;SDS011;4934;50.852;8.098;2023-02-17T04:20:47;16.30;;;8.50;;
9789;SDS011;4934;50.852;8.098;2023-02-17T04:23:13;18.20;;;8.98;;
9789;SDS011;4934;50.852;8.098;2023-02-17T04:25:40;16.75;;;9.10;;
9789;SDS011;4934;50.852;8.098;2023-02-17T04:28:06;17.20;;;8.23;;
9789;SDS011;4934;50.852;8.098;2023-02-17T04:30:32;22.20;;;10.38;;
9789;SDS011;4934;50.852;8.098;2023-02-17T04:32:58;16.83;;;8.90;;
9789;SDS011;4934;50.852;8.098;2023-02-17T04:35:25;14.50;;;8.48;;
9789;SDS011;4934;50.852;8.098;2023-02-17T04:37:51;15.35;;;8.68;;
9789;SDS011;4934;50.852;8.098;2023-02-17T04:40:17;16.25;;;8.18;;
9789;SDS011;4934;50.852;8.098;2023-02-17T04:42:43;17.23;;;8.63;;
9789;SDS011;4934;50.852;8.098;2023-02-17T04:45:09;17.15;;;9.00;;
9789;SDS011;4934;50.852;8.098;2023-02-17T04:47:35;19.40;;;8.93;;
9789;SDS011;4934;50.852;8.098;2023-02-17T04:50:01;16.40;;;8.52;;
9789;SDS011;4934;50.852;8.098;2023-02-17T04:52:27;15.32;;;8.18;;
9789;SDS011;4934;50.852;8.098;2023-02-17T04:54:53;18.23;;;8.77;;
9789;SDS011;4934;50.852;8.098;2023-02-17T04:57:19;13.38;;;7.60;;
9789;SDS011;4934;50.852;8.098;2023-02-17T04:59:44;15.10;;;8.00;;
9789;SDS011;4934;50.852;8.098;2023-02-17T05:02:10;16.25;;;8.40;;
9789;SDS011;4934;50.852;8.098;2023-02-17T05:04:35;15.88;;;8.50;;
9789;SDS011;4934;50.852;8.098;2023-02-17T05:07:01;15.73;;;9.15;;
9789;SDS011;4934;50.852;8.098;2023-02-17T05:09:27;17.05;;;9.05;;
9789;SDS011;4934;50.852;8.098;2023-02-17T05:11:52;19.67;;;9.27;;
9789;SDS011;4934;50.852;8.098;2023-02-17T05:14:18;16.25;;;8.48;;
9789;SDS011;4934;50.852;8.098;2023-02-17T05:16:44;23.73;;;9.85;;
9789;SDS011;4934;50.852;8.098;2023-02-17T05:19:10;15.80;;;8.20;;
9789;SDS011;4934;50.852;8.098;2023-02-17T05:21:35;16.50;;;8.52;;
9789;SDS011;4934;50.852;8.098;2023-02-17T05:24:01;20.30;;;8.10;;
9789;SDS011;4934;50.852;8.098;2023-02-17T05:26:26;16.60;;;8.32;;
9789;SDS011;4934;50.852;8.098;2023-02-17T05:28:52;16.48;;;8.18;;
9789;SDS011;4934;50.852;8.098;2023-02-17T05:31:18;14.18;;;8.00;;
9789;SDS011;4934;50.852;8.098;2023-02-17T05:33:43;15.20;;;7.25;;
9789;SDS011;4934;50.852;8.098;2023-02-17T05:36:09;14.43;;;8.30;;
9789;SDS011;4934;50.852;8.098;2023-02-17T05:38:36;14.85;;;7.82;;
9789;SDS011;4934;50.852;8.098;2023-02-17T05:41:02;16.80;;;8.48;;
9789;SDS011;4934;50.852;8.098;2023-02-17T05:43:28;13.35;;;8.20;;
9789;SDS011;4934;50.852;8.098;2023-02-17T05:45:54;16.73;;;7.72;;
9789;SDS011;4934;50.852;8.098;2023-02-17T05:48:20;13.30;;;8.07;;
9789;SDS011;4934;50.852;8.098;2023-02-17T05:50:46;17.42;;;8.52;;
9789;SDS011;4934;50.852;8.098;2023-02-17T05:53:12;14.75;;;7.88;;
9789;SDS011;4934;50.852;8.098;2023-02-17T05:55:37;14.73;;;7.65;;
9789;SDS011;4934;50.852;8.098;2023-02-17T05:58:04;12.82;;;8.07;;
9789;SDS011;4934;50.852;8.098;2023-02-17T06:00:30;15.20;;;7.18;;
9789;SDS011;4934;50.852;8.098;2023-02-17T06:02:55;14.05;;;7.75;;
9789;SDS011;4934;50.852;8.098;2023-02-17T06:05:21;18.45;;;8.20;;
9789;SDS011;4934;50.852;8.098;2023-02-17T06:07:47;12.50;;;7.05;;
9789;SDS011;4934;50.852;8.098;2023-02-17T06:10:13;14.18;;;7.72;;
9789;SDS011;4934;50.852;8.098;2023-02-17T06:12:38;12.98;;;7.97;;
9789;SDS011;4934;50.852;8.098;2023-02-17T06:15:04;12.60;;;7.72;;
9789;SDS011;4934;50.852;8.098;2023-02-17T06:17:30;14.00;;;7.50;;
9789;SDS011;4934;50.852;8.098;2023-02-17T06:19:56;14.15;;;8.02;;
9789;SDS011;4934;50.852;8.098;2023-02-17T06:22:21;15.02;;;7.78;;
9789;SDS011;4934;50.852;8.098;2023-02-17T06:24:47;13.10;;;7.82;;
9789;SDS011;4934;50.852;8.098;2023-02-17T06:27:12;13.20;;;7.85;;
9789;SDS011;4934;50.852;8.098;2023-02-17T06:29:38;15.70;;;7.47;;
9789;SDS011;4934;50.852;8.098;2023-02-17T06:32:04;13.98;;;7.65;;
9789;SDS011;4934;50.852;8.098;2023-02-17T06:34:29;15.38;;;7.82;;
9789;SDS011;4934;50.852;8.098;2023-02-17T06:36:55;16.35;;;8.23;;
9789;SDS011;4934;50.852;8.098;2023-02-17T06:39:20;13.93;;;7.70;;
9789;SDS011;4934;50.852;8.098;2023-02-17T06:41:46;15.55;;;7.43;;
9789;SDS011;4934;50.852;8.098;2023-02-17T06:44:12;13.45;;;7.03;;
9789;SDS011;4934;50.852;8.098;2023-02-17T06:46:37;10.73;;;6.13;;
9789;SDS011;4934;50.852;8.098;2023-02-17T06:49:03;13.75;;;7.07;;
9789;SDS011;4934;50.852;8.098;2023-02-17T06:51:30;13.82;;;7.05;;
9789;SDS011;4934;50.852;8.098;2023-02-17T06:53:55;13.23;;;6.47;;
9789;SDS011;4934;50.852;8.098;2023-02-17T06:56:21;13.27;;;6.75;;
9789;SDS011;4934;50.852;8.098;2023-02-17T06:58:47;12.40;;;6.45;;
9789;SDS011;4934;50.852;8.098;2023-02-17T07:01:22;13.07;;;6.70;;
9789;SDS011;4934;50.852;8.098;2023-02-17T07:03:52;12.50;;;6.57;;
9789;SDS011;4934;50.852;8.098;2023-02-17T07:06:18;10.98;;;6.20;;
9789;SDS011;4934;50.852;8.098;2023-02-17T07:08:44;12.40;;;6.40;;
9789;SDS011;4934;50.852;8.098;2023-02-17T07:11:11;12.32;;;6.15;;
9789;SDS011;4934;50.852;8.098;2023-02-17T07:13:38;14.85;;;6.50;;
9789;SDS011;4934;50.852;8.098;2023-02-17T07:16:05;13.35;;;6.75;;
9789;SDS011;4934;50.852;8.098;2023-02-17T07:18:31;11.23;;;6.10;;
9789;SDS011;4934;50.852;8.098;2023-02-17T07:20:57;10.55;;;6.55;;
9789;SDS011;4934;50.852;8.098;2023-02-17T07:23:22;14.45;;;6.65;;
9789;SDS011;4934;50.852;8.098;2023-02-17T07:25:48;12.23;;;6.47;;
9789;SDS011;4934;50.852;8.098;2023-02-17T07:28:14;11.52;;;6.78;;
9789;SDS011;4934;50.852;8.098;2023-02-17T07:30:40;11.25;;;6.75;;
9789;SDS011;4934;50.852;8.098;2023-02-17T07:33:06;10.85;;;6.75;;
9789;SDS011;4934;50.852;8.098;2023-02-17T07:35:32;11.90;;;6.32;;
9789;SDS011;4934;50.852;8.098;2023-02-17T07:37:59;12.65;;;6.20;;
9789;SDS011;4934;50.852;8.098;2023-02-17T07:40:25;12.75;;;6.38;;
9789;SDS011;4934;50.852;8.098;2023-02-17T07:42:51;12.77;;;7.32;;
9789;SDS011;4934;50.852;8.098;2023-02-17T07:45:18;11.85;;;6.55;;
9789;SDS011;4934;50.852;8.098;2023-02-17T07:47:44;11.65;;;6.28;;
9789;SDS011;4934;50.852;8.098;2023-02-17T07:50:09;16.02;;;8.27;;
9789;SDS011;4934;50.852;8.098;2023-02-17T07:52:36;15.52;;;7.20;;
9789;SDS011;4934;50.852;8.098;2023-02-17T07:55:05;12.57;;;7.18;;
9789;SDS011;4934;50.852;8.098;2023-02-17T07:57:30;15.50;;;7.22;;
9789;SDS011;4934;50.852;8.098;2023-02-17T07:59:57;15.00;;;6.38;;
9789;SDS011;4934;50.852;8.098;2023-02-17T08:05:57;11.50;;;7.10;;
9789;SDS011;4934;50.852;8.098;2023-02-17T08:08:56;12.70;;;6.75;;
9789;SDS011;4934;50.852;8.098;2023-02-17T08:11:51;11.48;;;6.85;;
9789;SDS011;4934;50.852;8.098;2023-02-17T08:14:46;15.00;;;8.10;;
9789;SDS011;4934;50.852;8.098;2023-02-17T08:17:14;13.27;;;7.32;;
9789;SDS011;4934;50.852;8.098;2023-02-17T08:19:40;14.40;;;7.47;;
9789;SDS011;4934;50.852;8.098;2023-02-17T08:22:11;13.77;;;7.57;;
9789;SDS011;4934;50.852;8.098;2023-02-17T08:24:43;14.70;;;7.95;;
9789;SDS011;4934;50.852;8.098;2023-02-17T08:27:09;17.40;;;8.32;;
9789;SDS011;4934;50.852;8.098;2023-02-17T08:29:35;17.23;;;8.95;;
9789;SDS011;4934;50.852;8.098;2023-02-17T08:32:06;17.65;;;8.25;;
9789;SDS011;4934;50.852;8.098;2023-02-17T08:34:32;14.40;;;7.88;;
9789;SDS011;4934;50.852;8.098;2023-02-17T08:36:58;15.50;;;8.00;;
9789;SDS011;4934;50.852;8.098;2023-02-17T08:39:24;14.00;;;7.80;;
9789;SDS011;4934;50.852;8.098;2023-02-17T08:41:51;17.30;;;8.77;;
9789;SDS011;4934;50.852;8.098;2023-02-17T08:44:17;19.05;;;8.93;;
9789;SDS011;4934;50.852;8.098;2023-02-17T08:46:45;17.25;;;8.15;;
9789;SDS011;4934;50.852;8.098;2023-02-17T08:49:12;19.98;;;9.27;;
9789;SDS011;4934;50.852;8.098;2023-02-17T08:51:46;20.27;;;9.18;;
9789;SDS011;4934;50.852;8.098;2023-02-17T08:54:12;19.67;;;9.23;;
9789;SDS011;4934;50.852;8.098;2023-02-17T08:56:38;18.35;;;9.35;;
9789;SDS011;4934;50.852;8.098;2023-02-17T08:59:05;17.48;;;9.07;;
9789;SDS011;4934;50.852;8.098;2023-02-17T09:01:32;21.05;;;9.95;;
9789;SDS011;4934;50.852;8.098;2023-02-17T09:03:59;17.55;;;8.80;;
9789;SDS011;4934;50.852;8.098;2023-02-17T09:06:36;19.48;;;10.10;;
9789;SDS011;4934;50.852;8.098;2023-02-17T09:09:10;20.15;;;9.25;;
9789;SDS011;4934;50.852;8.098;2023-02-17T09:11:37;18.45;;;9.50;;
9789;SDS011;4934;50.852;8.098;2023-02-17T09:14:04;17.13;;;9.43;;
9789;SDS011;4934;50.852;8.098;2023-02-17T09:16:30;16.88;;;9.15;;
9789;SDS011;4934;50.852;8.098;2023-02-17T09:18:55;22.40;;;9.60;;
9789;SDS011;4934;50.852;8.098;2023-02-17T09:21:24;17.85;;;9.45;;
9789;SDS011;4934;50.852;8.098;2023-02-17T09:23:49;22.10;;;12.57;;
9789;SDS011;4934;50.852;8.098;2023-02-17T09:26:17;19.98;;;9.15;;
9789;SDS011;4934;50.852;8.098;2023-02-17T09:28:44;18.83;;;9.18;;
9789;SDS011;4934;50.852;8.098;2023-02-17T09:31:14;22.25;;;9.77;;
9789;SDS011;4934;50.852;8.098;2023-02-17T09:33:45;18.77;;;9.80;;
9789;SDS011;4934;50.852;8.098;2023-02-17T09:36:18;21.05;;;9.48;;
9789;SDS011;4934;50.852;8.098;2023-02-17T09:38:49;18.83;;;9.23;;
9789;SDS011;4934;50.852;8.098;2023-02-17T09:41:32;19.52;;;8.82;;
9789;SDS011;4934;50.852;8.098;2023-02-17T09:44:18;17.67;;;9.30;;
9789;SDS011;4934;50.852;8.098;2023-02-17T09:46:48;17.75;;;9.25;;
9789;SDS011;4934;50.852;8.098;2023-02-17T09:49:39;20.35;;;8.93;;
9789;SDS011;4934;50.852;8.098;2023-02-17T09:57:24;17.95;;;9.15;;
9789;SDS011;4934;50.852;8.098;2023-02-17T09:59:58;15.85;;;7.97;;
9789;SDS011;4934;50.852;8.098;2023-02-17T10:02:38;15.38;;;7.47;;
9789;SDS011;4934;50.852;8.098;2023-02-17T10:05:21;19.20;;;7.65;;
9789;SDS011;4934;50.852;8.098;2023-02-17T10:10:38;14.93;;;7.17;;
9789;SDS011;4934;50.852;8.098;2023-02-17T10:13:10;14.48;;;6.53;;
9789;SDS011;4934;50.852;8.098;2023-02-17T10:15:42;14.45;;;7.00;;
9789;SDS011;4934;50.852;8.098;2023-02-17T10:18:18;11.88;;;6.32;;
9789;SDS011;4934;50.852;8.098;2023-02-17T10:20:59;15.05;;;6.82;;
9789;SDS011;4934;50.852;8.098;2023-02-17T10:23:31;11.95;;;6.13;;
9789;SDS011;4934;50.852;8.098;2023-02-17T10:26:05;8.95;;;6.45;;
9789;SDS011;4934;50.852;8.098;2023-02-17T10:29:13;10.25;;;5.53;;
9789;SDS011;4934;50.852;8.098;2023-02-17T10:32:06;10.75;;;5.70;;
9789;SDS011;4934;50.852;8.098;2023-02-17T10:40:46;10.40;;;4.97;;
9789;SDS011;4934;50.852;8.098;2023-02-17T10:43:18;12.68;;;5.30;;
9789;SDS011;4934;50.852;8.098;2023-02-17T10:45:48;8.77;;;4.75;;
9789;SDS011;4934;50.852;8.098;2023-02-17T10:48:22;11.55;;;4.95;;
9789;SDS011;4934;50.852;8.098;2023-02-17T10:50:52;9.63;;;4.68;;
9789;SDS011;4934;50.852;8.098;2023-02-17T10:53:24;8.82;;;4.80;;
9789;SDS011;4934;50.852;8.098;2023-02-17T10:56:01;9.63;;;4.53;;
9789;SDS011;4934;50.852;8.098;2023-02-17T11:01:01;8.85;;;4.80;;
9789;SDS011;4934;50.852;8.098;2023-02-17T11:03:29;8.57;;;4.57;;
9789;SDS011;4934;50.852;8.098;2023-02-17T11:05:57;8.45;;;3.78;;
9789;SDS011;4934;50.852;8.098;2023-02-17T11:08:33;7.32;;;4.30;;
9789;SDS011;4934;50.852;8.098;2023-02-17T11:11:12;5.85;;;3.78;;
9789;SDS011;4934;50.852;8.098;2023-02-17T11:19:20;6.05;;;3.78;;
9789;SDS011;4934;50.852;8.098;2023-02-17T11:24:14;7.05;;;3.50;;
9789;SDS011;4934;50.852;8.098;2023-02-17T11:26:40;7.25;;;3.53;;
9789;SDS011;4934;50.852;8.098;2023-02-17T11:29:09;4.43;;;2.88;;
9789;SDS011;4934;50.852;8.098;2023-02-17T11:31:40;5.57;;;3.15;;
9789;SDS011;4934;50.852;8.098;2023-02-17T11:34:10;7.45;;;3.45;;
9789;SDS011;4934;50.852;8.098;2023-02-17T11:36:37;6.70;;;2.90;;
9789;SDS011;4934;50.852;8.098;2023-02-17T11:39:15;8.05;;;3.42;;
9789;SDS011;4934;50.852;8.098;2023-02-17T11:41:45;7.00;;;3.50;;
9789;SDS011;4934;50.852;8.098;2023-02-17T11:44:10;4.57;;;3.10;;
9789;SDS011;4934;50.852;8.098;2023-02-17T11:46:48;5.60;;;3.10;;
9789;SDS011;4934;50.852;8.098;2023-02-17T12:00:40;5.20;;;2.20;;
9789;SDS011;4934;50.852;8.098;2023-02-17T12:06:23;3.75;;;2.28;;
9789;SDS011;4934;50.852;8.098;2023-02-17T12:18:11;2.53;;;1.75;;
9789;SDS011;4934;50.852;8.098;2023-02-17T12:21:06;2.53;;;1.50;;
9789;SDS011;4934;50.852;8.098;2023-02-17T12:23:48;2.30;;;1.52;;
9789;SDS011;4934;50.852;8.098;2023-02-17T12:29:08;2.75;;;1.67;;
9789;SDS011;4934;50.852;8.098;2023-02-17T12:31:59;3.25;;;2.10;;
9789;SDS011;4934;50.852;8.098;2023-02-17T12:35:13;1.67;;;1.30;;
9789;SDS011;4934;50.852;8.098;2023-02-17T12:37:53;1.92;;;1.20;;
9789;SDS011;4934;50.852;8.098;2023-02-17T12:40:36;1.85;;;1.30;;
9789;SDS011;4934;50.852;8.098;2023-02-17T12:43:20;1.67;;;1.17;;
9789;SDS011;4934;50.852;8.098;2023-02-17T12:45:55;1.77;;;1.45;;
9789;SDS011;4934;50.852;8.098;2023-02-17T12:48:34;1.70;;;1.15;;
9789;SDS011;4934;50.852;8.098;2023-02-17T12:57:18;2.50;;;1.50;;
9789;SDS011;4934;50.852;8.098;2023-02-17T12:59:56;2.60;;;0.95;;
9789;SDS011;4934;50.852;8.098;2023-02-17T13:02:38;2.08;;;1.00;;
9789;SDS011;4934;50.852;8.098;2023-02-17T13:05:05;1.30;;;0.80;;
9789;SDS011;4934;50.852;8.098;2023-02-17T13:11:31;2.47;;;1.33;;
9789;SDS011;4934;50.852;8.098;2023-02-17T13:14:40;1.45;;;1.05;;
9789;SDS011;4934;50.852;8.098;2023-02-17T13:17:24;1.43;;;1.23;;
9789;SDS011;4934;50.852;8.098;2023-02-17T13:22:36;1.48;;;0.88;;
9789;SDS011;4934;50.852;8.098;2023-02-17T13:25:03;2.35;;;1.23;;
9789;SDS011;4934;50.852;8.098;2023-02-17T13:27:31;1.42;;;1.00;;
9789;SDS011;4934;50.852;8.098;2023-02-17T13:32:46;2.92;;;1.70;;
9789;SDS011;4934;50.852;8.098;2023-02-17T13:37:42;1.90;;;0.90;;
9789;SDS011;4934;50.852;8.098;2023-02-17T13:42:42;2.10;;;1.00;;
9789;SDS011;4934;50.852;8.098;2023-02-17T13:47:51;1.83;;;0.80;;
9789;SDS011;4934;50.852;8.098;2023-02-17T13:53:01;4.93;;;1.02;;
9789;SDS011;4934;50.852;8.098;2023-02-17T13:55:43;2.17;;;1.00;;
9789;SDS011;4934;50.852;8.098;2023-02-17T13:58:09;5.13;;;0.80;;
9789;SDS011;4934;50.852;8.098;2023-02-17T14:00:35;1.63;;;0.90;;
9789;SDS011;4934;50.852;8.098;2023-02-17T14:05:50;2.63;;;0.95;;
9789;SDS011;4934;50.852;8.098;2023-02-17T14:10:55;1.77;;;0.90;;
9789;SDS011;4934;50.852;8.098;2023-02-17T14:13:23;3.15;;;0.77;;
9789;SDS011;4934;50.852;8.098;2023-02-17T14:15:54;1.63;;;0.82;;
9789;SDS011;4934;50.852;8.098;2023-02-17T14:18:39;1.23;;;0.80;;
9789;SDS011;4934;50.852;8.098;2023-02-17T14:21:09;2.95;;;1.00;;
9789;SDS011;4934;50.852;8.098;2023-02-17T14:23:41;1.08;;;0.60;;
9789;SDS011;4934;50.852;8.098;2023-02-17T14:26:12;1.10;;;0.77;;
9789;SDS011;4934;50.852;8.098;2023-02-17T14:28:53;2.00;;;0.90;;
9789;SDS011;4934;50.852;8.098;2023-02-17T14:31:20;1.17;;;1.00;;
9789;SDS011;4934;50.852;8.098;2023-02-17T14:33:54;6.15;;;2.20;;
9789;SDS011;4934;50.852;8.098;2023-02-17T14:38:54;2.03;;;0.80;;
9789;SDS011;4934;50.852;8.098;2023-02-17T14:41:21;2.45;;;1.48;;
9789;SDS011;4934;50.852;8.098;2023-02-17T14:43:46;2.20;;;1.52;;
9789;SDS011;4934;50.852;8.098;2023-02-17T14:46:12;3.20;;;1.60;;
9789;SDS011;4934;50.852;8.098;2023-02-17T14:48:39;2.30;;;1.50;;
9789;SDS011;4934;50.852;8.098;2023-02-17T14:51:11;2.10;;;1.25;;
9789;SDS011;4934;50.852;8.098;2023-02-17T14:53:38;4.63;;;2.15;;
9789;SDS011;4934;50.852;8.098;2023-02-17T14:58:55;3.95;;;1.70;;
9789;SDS011;4934;50.852;8.098;2023-02-17T15:01:21;4.80;;;2.20;;
9789;SDS011;4934;50.852;8.098;2023-02-17T15:03:48;2.63;;;1.30;;
9789;SDS011;4934;50.852;8.098;2023-02-17T15:06:15;5.57;;;2.00;;
9789;SDS011;4934;50.852;8.098;2023-02-17T15:08:44;5.00;;;2.65;;
9789;SDS011;4934;50.852;8.098;2023-02-17T15:11:46;8.00;;;2.90;;
9789;SDS011;4934;50.852;8.098;2023-02-17T15:14:06;4.97;;;1.92;;
9789;SDS011;4934;50.852;8.098;2023-02-17T15:16:39;4.63;;;2.47;;
9789;SDS011;4934;50.852;8.098;2023-02-17T15:19:05;4.40;;;2.67;;
9789;SDS011;4934;50.852;8.098;2023-02-17T15:21:31;3.05;;;1.92;;
9789;SDS011;4934;50.852;8.098;2023-02-17T15:23:59;5.53;;;2.42;;
9789;SDS011;4934;50.852;8.098;2023-02-17T15:26:26;5.60;;;2.40;;
9789;SDS011;4934;50.852;8.098;2023-02-17T15:28:54;6.28;;;3.30;;
9789;SDS011;4934;50.852;8.098;2023-02-17T15:31:21;6.75;;;3.28;;
9789;SDS011;4934;50.852;8.098;2023-02-17T15:33:54;4.25;;;2.58;;
9789;SDS011;4934;50.852;8.098;2023-02-17T15:36:21;5.28;;;3.22;;
9789;SDS011;4934;50.852;8.098;2023-02-17T15:38:47;4.57;;;2.40;;
9789;SDS011;4934;50.852;8.098;2023-02-17T15:41:15;4.53;;;2.80;;
9789;SDS011;4934;50.852;8.098;2023-02-17T15:43:44;8.38;;;3.10;;
9789;SDS011;4934;50.852;8.098;2023-02-17T15:46:12;6.45;;;2.17;;
9789;SDS011;4934;50.852;8.098;2023-02-17T15:48:40;5.32;;;2.60;;
9789;SDS011;4934;50.852;8.098;2023-02-17T15:51:08;5.40;;;2.53;;
9789;SDS011;4934;50.852;8.098;2023-02-17T15:53:43;5.55;;;2.20;;
9789;SDS011;4934;50.852;8.098;2023-02-17T15:56:22;3.88;;;2.20;;
9789;SDS011;4934;50.852;8.098;2023-02-17T15:58:50;6.25;;;2.80;;
9789;SDS011;4934;50.852;8.098;2023-02-17T16:03:51;4.32;;;2.50;;
9789;SDS011;4934;50.852;8.098;2023-02-17T16:06:17;8.88;;;3.38;;
9789;SDS011;4934;50.852;8.098;2023-02-17T16:08:44;6.47;;;3.97;;
9789;SDS011;4934;50.852;8.098;2023-02-17T16:11:12;5.00;;;3.13;;
9789;SDS011;4934;50.852;8.098;2023-02-17T16:13:39;7.47;;;4.38;;
9789;SDS011;4934;50.852;8.098;2023-02-17T16:16:14;6.43;;;4.10;;
9789;SDS011;4934;50.852;8.098;2023-02-17T16:18:46;7.68;;;4.90;;
9789;SDS011;4934;50.852;8.098;2023-02-17T16:21:12;9.52;;;4.43;;
9789;SDS011;4934;50.852;8.098;2023-02-17T16:23:38;9.40;;;5.15;;
9789;SDS011;4934;50.852;8.098;2023-02-17T16:26:05;9.35;;;5.85;;
9789;SDS011;4934;50.852;8.098;2023-02-17T16:28:39;14.68;;;6.00;;
9789;SDS011;4934;50.852;8.098;2023-02-17T16:31:08;8.65;;;5.25;;
9789;SDS011;4934;50.852;8.098;2023-02-17T16:33:34;11.75;;;5.32;;
9789;SDS011;4934;50.852;8.098;2023-02-17T16:36:00;11.15;;;5.28;;
9789;SDS011;4934;50.852;8.098;2023-02-17T16:38:26;10.95;;;6.00;;
9789;SDS011;4934;50.852;8.098;2023-02-17T16:40:51;9.20;;;5.90;;
9789;SDS011;4934;50.852;8.098;2023-02-17T16:43:20;13.88;;;6.22;;
9789;SDS011;4934;50.852;8.098;2023-02-17T16:45:55;13.48;;;5.88;;
9789;SDS011;4934;50.852;8.098;2023-02-17T16:48:28;11.07;;;5.97;;
9789;SDS011;4934;50.852;8.098;2023-02-17T16:50:55;9.32;;;5.25;;
9789;SDS011;4934;50.852;8.098;2023-02-17T16:53:21;9.88;;;5.68;;
9789;SDS011;4934;50.852;8.098;2023-02-17T16:55:48;15.70;;;6.03;;
9789;SDS011;4934;50.852;8.098;2023-02-17T16:58:17;8.68;;;5.18;;
9789;SDS011;4934;50.852;8.098;2023-02-17T17:00:46;14.23;;;6.18;;
9789;SDS011;4934;50.852;8.098;2023-02-17T17:03:13;17.30;;;8.02;;
9789;SDS011;4934;50.852;8.098;2023-02-17T17:05:38;10.10;;;6.30;;